createdAt,value
2019-02-15T00:00:42.446Z,14.50
2019-02-15T00:03:11.411Z,13.53
2019-02-15T00:05:40.402Z,12.37
2019-02-15T00:08:09.283Z,13.13
2019-02-15T00:10:38.278Z,14.33
2019-02-15T00:13:13.248Z,13.33
2019-02-15T00:15:38.083Z,17.63
2019-02-15T00:18:25.031Z,12.27
2019-02-15T00:21:14.559Z,13.33
2019-02-15T00:23:43.572Z,12.07
2019-02-15T00:26:12.473Z,13.03
2019-02-15T00:28:41.531Z,12.73
2019-02-15T00:31:12.253Z,11.83
2019-02-15T00:33:41.343Z,11.33
2019-02-15T00:36:10.295Z,13.10
2019-02-15T00:38:39.339Z,17.13
2019-02-15T00:41:08.232Z,12.47
2019-02-15T00:43:37.253Z,15.47
2019-02-15T00:46:35.014Z,11.90
2019-02-15T00:49:05.711Z,11.77
2019-02-15T00:51:42.159Z,14.93
2019-02-15T00:54:20.297Z,13.20
2019-02-15T00:57:10.615Z,12.77
2019-02-15T00:59:51.095Z,14.70
2019-02-15T01:02:34.819Z,14.07
2019-02-15T01:05:28.259Z,15.10
2019-02-15T01:08:31.577Z,14.77
2019-02-15T01:11:14.437Z,15.10
2019-02-15T01:13:43.457Z,17.40
2019-02-15T01:16:12.426Z,15.50
2019-02-15T01:18:41.398Z,13.90
2019-02-15T01:21:10.460Z,15.13
2019-02-15T01:23:39.518Z,14.20
2019-02-15T01:26:19.671Z,14.03
2019-02-15T01:29:08.595Z,14.97
2019-02-15T01:32:08.338Z,15.50
2019-02-15T01:34:47.434Z,13.30
2019-02-15T01:37:23.765Z,13.30
2019-02-15T01:40:02.494Z,11.57
2019-02-15T01:42:53.599Z,11.43
2019-02-15T01:45:26.395Z,11.97
2019-02-15T01:47:55.370Z,12.60
2019-02-15T01:50:24.353Z,10.77
2019-02-15T01:52:53.369Z,11.63
2019-02-15T01:55:22.466Z,12.60
2019-02-15T01:57:51.410Z,12.67
2019-02-15T02:00:21.927Z,10.53
2019-02-15T02:02:50.810Z,12.73
2019-02-15T02:05:19.847Z,10.97
2019-02-15T02:07:48.967Z,14.43
2019-02-15T02:10:17.936Z,13.23
2019-02-15T02:12:46.999Z,15.10
2019-02-15T02:15:16.043Z,13.50
2019-02-15T02:17:45.034Z,10.13
2019-02-15T02:20:14.252Z,10.70
2019-02-15T02:22:43.295Z,12.83
2019-02-15T02:25:12.327Z,12.13
2019-02-15T02:27:41.326Z,10.27
2019-02-15T02:30:10.476Z,10.77
2019-02-15T02:32:39.432Z,12.00
2019-02-15T02:35:08.855Z,12.17
2019-02-15T02:37:37.887Z,12.30
2019-02-15T02:40:07.570Z,10.43
2019-02-15T02:42:36.683Z,12.93
2019-02-15T02:45:06.504Z,13.60
2019-02-15T02:47:35.535Z,13.40
2019-02-15T02:50:04.827Z,10.73
2019-02-15T02:52:33.917Z,14.70
2019-02-15T02:55:02.943Z,13.30
2019-02-15T02:57:31.849Z,11.87
2019-02-15T03:00:00.811Z,11.40
2019-02-15T03:02:29.811Z,12.53
2019-02-15T03:04:58.967Z,10.87
2019-02-15T03:07:28.046Z,12.70
2019-02-15T03:09:57.141Z,11.90
2019-02-15T03:12:26.077Z,12.00
2019-02-15T03:14:55.145Z,13.90
2019-02-15T03:17:24.039Z,12.60
2019-02-15T03:19:53.003Z,12.03
2019-02-15T03:22:22.044Z,15.60
2019-02-15T03:24:51.087Z,14.70
2019-02-15T03:27:20.094Z,11.33
2019-02-15T03:29:49.012Z,10.77
2019-02-15T03:32:17.981Z,11.60
2019-02-15T03:34:46.926Z,10.87
2019-02-15T03:37:34.077Z,11.63
2019-02-15T03:40:19.910Z,13.90
2019-02-15T03:42:48.956Z,11.50
2019-02-15T03:45:18.480Z,13.03
2019-02-15T03:47:47.540Z,12.93
2019-02-15T03:50:16.671Z,11.67
2019-02-15T03:52:45.657Z,10.30
2019-02-15T03:55:14.698Z,14.00
2019-02-15T03:57:43.776Z,10.47
2019-02-15T04:00:13.573Z,11.63
2019-02-15T04:02:42.613Z,11.03
2019-02-15T04:05:11.674Z,11.23
2019-02-15T04:07:40.705Z,11.30
2019-02-15T04:10:09.958Z,11.57
2019-02-15T04:12:39.058Z,11.83
2019-02-15T04:15:08.407Z,11.90
2019-02-15T04:17:37.412Z,13.67
2019-02-15T04:20:08.008Z,13.67
2019-02-15T04:22:37.017Z,12.77
2019-02-15T04:25:06.036Z,13.57
2019-02-15T04:27:35.087Z,13.33
2019-02-15T04:30:04.132Z,15.30
2019-02-15T04:32:33.029Z,16.67
2019-02-15T04:35:02.056Z,16.43
2019-02-15T04:37:31.051Z,15.53
2019-02-15T04:40:00.013Z,15.60
2019-02-15T04:42:29.048Z,17.77
2019-02-15T04:44:57.913Z,15.47
2019-02-15T04:47:26.861Z,14.00
2019-02-15T04:49:55.921Z,13.30
2019-02-15T04:52:24.984Z,15.80
2019-02-15T04:54:53.951Z,14.67
2019-02-15T04:57:23.030Z,15.70
2019-02-15T04:59:52.025Z,13.90
2019-02-15T05:02:20.944Z,14.20
2019-02-15T05:04:49.955Z,12.43
2019-02-15T05:07:18.915Z,15.83
2019-02-15T05:09:47.803Z,13.53
2019-02-15T05:12:17.522Z,16.63
2019-02-15T05:14:53.161Z,17.50
2019-02-15T05:17:17.295Z,13.93
2019-02-15T05:19:46.208Z,12.90
2019-02-15T05:22:15.200Z,11.83
2019-02-15T05:24:44.210Z,14.40
2019-02-15T05:27:13.226Z,11.83
2019-02-15T05:29:42.256Z,15.93
2019-02-15T05:32:11.283Z,11.57
2019-02-15T05:34:40.331Z,13.30
2019-02-15T05:37:09.561Z,14.27
2019-02-15T05:39:38.593Z,15.27
2019-02-15T05:42:07.611Z,11.57
2019-02-15T05:44:36.618Z,16.60
2019-02-15T05:47:05.523Z,13.93
2019-02-15T05:49:34.470Z,11.30
2019-02-15T05:52:03.535Z,13.10
2019-02-15T05:54:32.586Z,12.23
2019-02-15T05:57:01.578Z,12.40
2019-02-15T05:59:30.544Z,13.47
2019-02-15T06:01:59.582Z,12.67
2019-02-15T06:04:28.477Z,15.10
2019-02-15T06:06:57.511Z,13.70
2019-02-15T06:09:26.524Z,11.63
2019-02-15T06:11:55.544Z,11.87
2019-02-15T06:14:24.483Z,13.10
2019-02-15T06:16:53.535Z,13.37
2019-02-15T06:19:22.597Z,16.53
2019-02-15T06:21:51.615Z,13.73
2019-02-15T06:24:20.655Z,13.73
2019-02-15T06:26:49.629Z,12.23
2019-02-15T06:29:18.645Z,12.63
2019-02-15T06:31:47.644Z,12.37
2019-02-15T06:34:16.612Z,13.87
2019-02-15T06:36:45.500Z,13.27
2019-02-15T06:39:14.483Z,12.67
2019-02-15T06:41:43.515Z,11.77
2019-02-15T06:44:13.376Z,13.77
2019-02-15T06:46:42.504Z,13.33
2019-02-15T06:49:11.459Z,12.87
2019-02-15T06:51:40.356Z,13.90
2019-02-15T06:54:09.313Z,12.63
2019-02-15T06:56:38.398Z,13.87
2019-02-15T06:59:44.831Z,12.53
2019-02-15T07:02:22.174Z,12.33
2019-02-15T07:05:12.452Z,11.27
2019-02-15T07:07:41.377Z,15.00
2019-02-15T07:10:10.398Z,10.63
2019-02-15T07:12:39.330Z,13.80
2019-02-15T07:15:08.416Z,10.87
2019-02-15T07:17:37.407Z,13.30
2019-02-15T07:20:07.785Z,13.63
2019-02-15T07:22:36.687Z,10.93
2019-02-15T07:25:06.692Z,13.70
2019-02-15T07:27:35.632Z,13.07
2019-02-15T07:30:05.479Z,12.07
2019-02-15T07:32:34.375Z,14.90
2019-02-15T07:35:03.263Z,14.67
2019-02-15T07:37:32.258Z,15.63
2019-02-15T07:40:01.673Z,12.50
2019-02-15T07:42:31.006Z,15.63
2019-02-15T07:45:00.312Z,15.13
2019-02-15T07:47:29.466Z,11.33
2019-02-15T07:49:58.943Z,11.60
2019-02-15T07:52:28.283Z,12.33
2019-02-15T07:54:57.279Z,11.17
2019-02-15T07:57:35.837Z,11.97
2019-02-15T08:00:05.683Z,11.27
2019-02-15T08:02:34.784Z,11.60
2019-02-15T08:05:04.115Z,11.97
2019-02-15T08:07:33.222Z,10.60
2019-02-15T08:10:02.483Z,13.30
2019-02-15T08:12:31.659Z,15.27
2019-02-15T08:15:00.776Z,10.93
2019-02-15T08:17:30.006Z,12.37
2019-02-15T08:19:59.199Z,10.87
2019-02-15T08:22:28.430Z,9.93
2019-02-15T08:24:57.598Z,12.73
2019-02-15T08:27:26.794Z,10.70
2019-02-15T08:29:55.919Z,10.67
2019-02-15T08:32:25.184Z,14.77
2019-02-15T08:34:54.371Z,13.17
2019-02-15T08:37:23.552Z,12.37
2019-02-15T08:39:52.780Z,9.53
2019-02-15T08:42:21.897Z,11.67
2019-02-15T08:44:51.011Z,11.37
2019-02-15T08:47:20.127Z,9.70
2019-02-15T08:49:49.475Z,10.13
2019-02-15T08:52:18.639Z,9.77
2019-02-15T08:54:48.098Z,10.63
2019-02-15T08:57:17.687Z,15.27
2019-02-15T08:59:46.867Z,10.67
2019-02-15T09:02:21.617Z,9.60
2019-02-15T09:04:51.033Z,10.23
2019-02-15T09:07:20.224Z,10.83
2019-02-15T09:09:49.605Z,12.27
2019-02-15T09:12:18.797Z,12.93
2019-02-15T09:14:48.065Z,12.57
2019-02-15T09:17:17.579Z,16.53
2019-02-15T09:19:46.693Z,13.63
2019-02-15T09:22:15.947Z,10.53
2019-02-15T09:24:45.130Z,8.83
2019-02-15T09:27:36.732Z,10.43
2019-02-15T09:30:07.913Z,9.83
2019-02-15T09:32:37.150Z,12.67
2019-02-15T09:35:07.031Z,11.47
2019-02-15T09:37:36.229Z,12.73
2019-02-15T09:40:05.761Z,11.00
2019-02-15T09:42:35.058Z,10.30
2019-02-15T09:45:04.430Z,10.17
2019-02-15T09:47:33.937Z,9.13
2019-02-15T09:50:02.960Z,9.10
2019-02-15T09:52:31.905Z,9.93
2019-02-15T09:55:00.917Z,20.87
2019-02-15T09:57:29.880Z,8.20
2019-02-15T09:59:59.399Z,9.07
2019-02-15T10:02:28.391Z,8.90
2019-02-15T10:04:57.571Z,8.87
2019-02-15T10:07:26.795Z,10.20
2019-02-15T10:09:56.413Z,9.50
2019-02-15T10:12:25.576Z,9.23
2019-02-15T10:14:54.544Z,8.83
2019-02-15T10:17:23.986Z,7.80
2019-02-15T10:19:53.315Z,8.47
2019-02-15T10:22:22.359Z,9.03
2019-02-15T10:24:55.140Z,8.93
2019-02-15T10:27:24.553Z,8.90
2019-02-15T10:29:53.709Z,8.60
2019-02-15T10:32:23.054Z,8.23
2019-02-15T10:34:52.348Z,8.10
2019-02-15T10:37:21.559Z,11.57
2019-02-15T10:39:51.052Z,10.73
2019-02-15T10:42:20.298Z,11.23
2019-02-15T10:44:51.068Z,10.13
2019-02-15T10:47:25.278Z,11.03
2019-02-15T10:49:54.725Z,11.43
2019-02-15T10:52:24.078Z,10.07
2019-02-15T10:54:53.517Z,10.73
2019-02-15T10:57:23.002Z,9.73
2019-02-15T10:59:52.240Z,9.37
2019-02-15T11:02:21.458Z,8.63
2019-02-15T11:04:50.602Z,9.63
2019-02-15T11:07:19.742Z,11.47
2019-02-15T11:09:49.051Z,11.30
2019-02-15T11:12:18.200Z,10.20
2019-02-15T11:14:48.203Z,10.30
2019-02-15T11:17:17.863Z,9.30
2019-02-15T11:19:47.150Z,9.57
2019-02-15T11:22:16.388Z,12.17
2019-02-15T11:24:45.613Z,8.43
2019-02-15T11:27:17.457Z,8.67
2019-02-15T11:29:46.673Z,9.77
2019-02-15T11:32:15.984Z,9.97
2019-02-15T11:34:45.083Z,9.13
2019-02-15T11:37:14.334Z,8.17
2019-02-15T11:39:43.595Z,9.27
2019-02-15T11:42:13.012Z,8.60
2019-02-15T11:44:42.072Z,8.90
2019-02-15T11:47:11.280Z,13.03
2019-02-15T11:49:40.676Z,10.00
2019-02-15T11:52:09.816Z,8.83
2019-02-15T11:54:38.896Z,17.40
2019-02-15T11:57:07.852Z,9.03
2019-02-15T11:59:36.843Z,8.43
2019-02-15T12:02:06.744Z,9.40
2019-02-15T12:04:39.459Z,9.03
2019-02-15T12:07:08.809Z,8.87
2019-02-15T12:09:38.183Z,9.43
2019-02-15T12:12:10.715Z,8.60
2019-02-15T12:14:38.282Z,8.80
2019-02-15T12:17:07.727Z,8.83
2019-02-15T12:19:37.028Z,8.57
2019-02-15T12:22:06.253Z,8.50
2019-02-15T12:24:35.491Z,8.70
2019-02-15T12:27:04.727Z,9.70
2019-02-15T12:29:35.335Z,9.87
2019-02-15T12:32:05.461Z,8.23
2019-02-15T12:34:35.878Z,8.77
2019-02-15T12:37:06.642Z,8.33
2019-02-15T12:39:38.022Z,8.50
2019-02-15T12:42:08.034Z,8.53
2019-02-15T12:44:38.279Z,7.80
2019-02-15T12:47:14.901Z,8.47
2019-02-15T12:49:40.180Z,8.33
2019-02-15T12:52:10.239Z,8.13
2019-02-15T12:54:40.649Z,7.57
2019-02-15T12:57:10.728Z,8.07
2019-02-15T12:59:41.555Z,8.13
2019-02-15T13:02:12.167Z,7.77
2019-02-15T13:04:42.734Z,8.37
2019-02-15T13:07:13.441Z,8.30
2019-02-15T13:09:43.806Z,7.97
2019-02-15T13:12:14.628Z,9.37
2019-02-15T13:14:43.892Z,8.10
2019-02-15T13:17:13.092Z,8.27
2019-02-15T13:19:42.357Z,7.83
2019-02-15T13:22:11.630Z,8.37
2019-02-15T13:24:40.728Z,8.30
2019-02-15T13:27:09.951Z,8.27
2019-02-15T13:29:39.143Z,8.47
2019-02-15T13:32:08.419Z,8.90
2019-02-15T13:34:37.571Z,8.77
2019-02-15T13:37:06.705Z,8.50
2019-02-15T13:39:35.889Z,8.93
2019-02-15T13:42:05.170Z,8.50
2019-02-15T13:44:34.400Z,7.87
2019-02-15T13:47:03.561Z,7.87
2019-02-15T13:49:32.835Z,8.37
2019-02-15T13:52:01.981Z,8.10
2019-02-15T13:54:31.295Z,8.83
2019-02-15T13:57:00.731Z,7.63
2019-02-15T13:59:30.076Z,8.07
2019-02-15T14:01:59.228Z,8.77
2019-02-15T14:04:28.508Z,8.50
2019-02-15T14:06:57.988Z,8.43
2019-02-15T14:09:27.120Z,7.40
2019-02-15T14:11:56.346Z,7.37
2019-02-15T14:14:25.667Z,10.57
2019-02-15T14:16:54.818Z,7.43
2019-02-15T14:19:24.042Z,7.93
2019-02-15T14:21:53.280Z,8.37
2019-02-15T14:24:22.474Z,8.80
2019-02-15T14:26:51.664Z,8.20
2019-02-15T14:29:20.889Z,7.80
2019-02-15T14:31:50.166Z,7.73
2019-02-15T14:34:19.723Z,8.07
2019-02-15T14:36:48.970Z,8.77
2019-02-15T14:39:18.289Z,8.33
2019-02-15T14:41:47.683Z,7.50
2019-02-15T14:44:16.918Z,7.90
2019-02-15T14:46:46.132Z,7.27
2019-02-15T14:49:15.373Z,9.27
2019-02-15T14:51:44.562Z,8.33
2019-02-15T14:54:13.788Z,10.47
2019-02-15T14:56:43.008Z,8.43
2019-02-15T14:59:14.257Z,9.63
2019-02-15T15:01:43.496Z,9.57
2019-02-15T15:04:12.742Z,8.70
2019-02-15T15:06:42.112Z,9.53
2019-02-15T15:09:11.287Z,9.23
2019-02-15T15:11:40.580Z,9.20
2019-02-15T15:14:09.788Z,10.43
2019-02-15T15:16:38.963Z,9.13
2019-02-15T15:19:08.223Z,9.63
2019-02-15T15:21:37.501Z,16.73
2019-02-15T15:24:06.782Z,8.93
2019-02-15T15:26:36.017Z,9.00
2019-02-15T15:29:05.323Z,9.07
2019-02-15T15:31:34.520Z,9.27
2019-02-15T15:34:07.484Z,9.43
2019-02-15T15:36:36.754Z,8.80
2019-02-15T15:39:06.838Z,9.57
2019-02-15T15:41:36.053Z,9.10
2019-02-15T15:44:05.392Z,8.23
2019-02-15T15:46:34.670Z,9.37
2019-02-15T15:49:03.894Z,8.80
2019-02-15T15:51:33.162Z,8.07
2019-02-15T15:54:02.330Z,7.93
2019-02-15T15:56:31.575Z,7.43
2019-02-15T15:59:01.285Z,9.20
2019-02-15T16:01:30.241Z,8.20
2019-02-15T16:03:59.250Z,8.90
2019-02-15T16:06:28.290Z,9.40
2019-02-15T16:08:57.308Z,9.93
2019-02-15T16:11:26.507Z,9.53
2019-02-15T16:13:55.499Z,8.73
2019-02-15T16:16:24.495Z,9.07
2019-02-15T16:18:53.764Z,9.20
2019-02-15T16:21:22.817Z,9.60
2019-02-15T16:23:51.795Z,9.17
2019-02-15T16:26:20.766Z,10.37
2019-02-15T16:28:49.755Z,9.50
2019-02-15T16:31:18.743Z,10.40
2019-02-15T16:33:47.755Z,10.30
2019-02-15T16:36:16.843Z,10.00
2019-02-15T16:38:45.873Z,10.17
2019-02-15T16:41:14.837Z,11.33
2019-02-15T16:43:43.904Z,9.90
2019-02-15T16:46:12.937Z,10.30
2019-02-15T16:48:42.430Z,11.93
2019-02-15T16:51:11.600Z,11.80
2019-02-15T16:53:40.711Z,9.80
2019-02-15T16:56:09.799Z,10.40
2019-02-15T16:58:38.876Z,10.83
2019-02-15T17:01:07.967Z,10.50
2019-02-15T17:03:37.045Z,10.97
2019-02-15T17:06:06.083Z,10.23
2019-02-15T17:08:35.180Z,10.23
2019-02-15T17:11:04.209Z,11.43
2019-02-15T17:13:34.677Z,12.03
2019-02-15T17:16:03.976Z,10.47
2019-02-15T17:18:33.064Z,10.40
2019-02-15T17:21:02.198Z,11.33
2019-02-15T17:23:31.228Z,10.50
2019-02-15T17:26:00.383Z,11.13
2019-02-15T17:28:29.383Z,11.37
2019-02-15T17:30:58.444Z,10.63
2019-02-15T17:33:27.454Z,10.47
2019-02-15T17:35:56.423Z,11.73
2019-02-15T17:38:25.434Z,11.43
2019-02-15T17:40:54.399Z,12.03
2019-02-15T17:43:23.510Z,11.47
2019-02-15T17:45:52.502Z,11.43
2019-02-15T17:48:21.851Z,11.13
2019-02-15T17:50:50.846Z,11.17
2019-02-15T17:53:19.915Z,11.60
2019-02-15T17:55:48.964Z,10.77
2019-02-15T17:58:17.972Z,11.30
2019-02-15T18:00:47.125Z,11.67
2019-02-15T18:03:16.180Z,10.37
2019-02-15T18:05:45.276Z,11.73
2019-02-15T18:08:14.315Z,11.17
2019-02-15T18:10:43.403Z,9.67
2019-02-15T18:13:12.516Z,9.93
2019-02-15T18:15:41.548Z,11.33
2019-02-15T18:18:10.624Z,10.40
2019-02-15T18:20:39.652Z,11.17
2019-02-15T18:23:08.674Z,11.30
2019-02-15T18:25:37.687Z,10.67
2019-02-15T18:28:06.834Z,11.03
2019-02-15T18:30:36.017Z,14.23
2019-02-15T18:33:05.105Z,10.60
2019-02-15T18:35:34.183Z,11.93
2019-02-15T18:38:03.162Z,11.40
2019-02-15T18:40:32.360Z,11.00
2019-02-15T18:43:01.416Z,11.33
2019-02-15T18:45:30.474Z,12.60
2019-02-15T18:47:59.484Z,11.33
2019-02-15T18:50:28.512Z,12.23
2019-02-15T18:52:57.488Z,12.67
2019-02-15T18:55:26.507Z,12.23
2019-02-15T18:57:55.553Z,12.67
2019-02-15T19:00:24.665Z,14.40
2019-02-15T19:02:53.715Z,14.40
2019-02-15T19:05:22.811Z,16.07
2019-02-15T19:07:51.903Z,14.23
2019-02-15T19:10:21.015Z,11.40
2019-02-15T19:12:50.044Z,13.17
2019-02-15T19:15:19.115Z,12.77
2019-02-15T19:17:48.198Z,12.07
2019-02-15T19:20:17.257Z,12.13
2019-02-15T19:22:46.340Z,11.23
2019-02-15T19:25:15.345Z,11.33
2019-02-15T19:27:44.436Z,14.60
2019-02-15T19:30:18.479Z,11.90
2019-02-15T19:32:47.585Z,14.30
2019-02-15T19:35:16.611Z,11.90
2019-02-15T19:37:45.787Z,12.27
2019-02-15T19:40:15.054Z,11.33
2019-02-15T19:42:45.844Z,11.23
2019-02-15T19:45:14.948Z,11.87
2019-02-15T19:47:43.983Z,12.33
2019-02-15T19:50:14.068Z,12.17
2019-02-15T19:52:43.404Z,12.73
2019-02-15T19:55:12.591Z,10.83
2019-02-15T19:57:41.666Z,13.07
2019-02-15T20:00:13.270Z,12.50
2019-02-15T20:02:42.339Z,11.47
2019-02-15T20:05:11.520Z,11.90
2019-02-15T20:07:40.616Z,13.33
2019-02-15T20:10:12.187Z,10.83
2019-02-15T20:12:41.243Z,13.00
2019-02-15T20:15:11.778Z,11.33
2019-02-15T20:17:41.019Z,11.70
2019-02-15T20:20:11.371Z,11.67
2019-02-15T20:22:40.486Z,11.00
2019-02-15T20:25:10.439Z,10.97
2019-02-15T20:27:39.498Z,12.50
2019-02-15T20:30:11.581Z,12.43
2019-02-15T20:32:40.636Z,11.10
2019-02-15T20:35:10.231Z,12.23
2019-02-15T20:37:39.315Z,12.10
2019-02-15T20:40:09.593Z,12.20
2019-02-15T20:42:38.689Z,11.10
2019-02-15T20:45:13.590Z,10.43
2019-02-15T20:47:42.643Z,12.17
2019-02-15T20:50:11.815Z,13.27
2019-02-15T20:52:40.888Z,11.00
2019-02-15T20:55:11.431Z,11.97
2019-02-15T20:57:40.512Z,13.67
2019-02-15T21:00:12.168Z,13.13
2019-02-15T21:02:41.173Z,11.07
2019-02-15T21:05:10.767Z,11.20
2019-02-15T21:07:39.801Z,13.83
2019-02-15T21:10:09.891Z,11.60
2019-02-15T21:12:39.634Z,11.03
2019-02-15T21:15:09.494Z,12.93
2019-02-15T21:17:38.573Z,11.67
2019-02-15T21:20:09.147Z,12.80
2019-02-15T21:22:38.212Z,12.47
2019-02-15T21:25:08.637Z,12.77
2019-02-15T21:27:37.698Z,11.77
2019-02-15T21:30:08.618Z,13.10
2019-02-15T21:32:37.679Z,13.20
2019-02-15T21:35:06.778Z,15.43
2019-02-15T21:37:35.751Z,12.33
2019-02-15T21:40:04.979Z,14.97
2019-02-15T21:42:34.053Z,11.90
2019-02-15T21:45:03.121Z,12.60
2019-02-15T21:47:32.260Z,12.10
2019-02-15T21:50:01.235Z,14.33
2019-02-15T21:52:30.340Z,12.07
2019-02-15T21:54:59.383Z,12.77
2019-02-15T21:57:28.348Z,12.70
2019-02-15T21:59:57.396Z,14.00
2019-02-15T22:02:26.497Z,13.03
2019-02-15T22:04:55.498Z,13.07
2019-02-15T22:07:24.930Z,12.70
2019-02-15T22:09:54.010Z,12.70
2019-02-15T22:12:23.443Z,14.20
2019-02-15T22:14:52.609Z,13.47
2019-02-15T22:17:21.591Z,12.37
2019-02-15T22:19:50.595Z,13.13
2019-02-15T22:22:19.643Z,13.03
2019-02-15T22:24:48.615Z,13.37
2019-02-15T22:27:17.689Z,13.73
2019-02-15T22:29:46.980Z,12.63
2019-02-15T22:32:16.041Z,14.93
2019-02-15T22:34:45.110Z,14.77
2019-02-15T22:37:14.182Z,13.40
2019-02-15T22:39:43.191Z,16.00
2019-02-15T22:42:12.146Z,13.23
2019-02-15T22:44:41.227Z,14.70
2019-02-15T22:47:10.211Z,13.17
2019-02-15T22:49:43.242Z,13.67
2019-02-15T22:52:10.039Z,14.30
2019-02-15T22:54:38.989Z,14.73
2019-02-15T22:57:08.057Z,15.87
2019-02-15T22:59:37.070Z,15.20
2019-02-15T23:02:06.210Z,17.03
2019-02-15T23:04:35.331Z,13.73
2019-02-15T23:07:04.422Z,13.70
2019-02-15T23:09:33.467Z,15.23
2019-02-15T23:12:02.535Z,13.30
2019-02-15T23:14:31.605Z,12.73
2019-02-15T23:17:00.673Z,12.57
2019-02-15T23:19:29.754Z,12.37
2019-02-15T23:21:58.651Z,14.20
2019-02-15T23:24:27.646Z,13.03
2019-02-15T23:26:56.608Z,13.60
2019-02-15T23:29:25.679Z,13.20
2019-02-15T23:31:54.624Z,13.67
2019-02-15T23:34:23.703Z,12.60
2019-02-15T23:36:52.762Z,13.93
2019-02-15T23:39:21.835Z,13.27
2019-02-15T23:41:50.915Z,15.00
2019-02-15T23:44:19.979Z,19.83
2019-02-15T23:46:48.899Z,14.30
2019-02-15T23:49:17.940Z,14.23
2019-02-15T23:51:47.001Z,14.57
2019-02-15T23:54:15.975Z,16.27
2019-02-15T23:56:44.955Z,14.40
2019-02-15T23:59:13.956Z,13.93
